createdAt,value
2023-01-09T00:00:52.671Z,8.88
2023-01-09T00:10:54.015Z,8.73
2023-01-09T00:20:55.773Z,8.72
2023-01-09T00:31:02.103Z,8.61
2023-01-09T00:41:06.435Z,8.63
2023-01-09T00:51:08.417Z,8.60
2023-01-09T01:01:09.951Z,8.61
2023-01-09T01:11:13.022Z,8.57
2023-01-09T01:21:15.221Z,8.56
2023-01-09T01:31:18.466Z,8.51
2023-01-09T01:41:29.511Z,8.46
2023-01-09T01:51:35.676Z,8.48
2023-01-09T02:01:41.162Z,8.44
2023-01-09T02:11:47.549Z,8.46
2023-01-09T02:22:00.755Z,8.35
2023-01-09T02:32:23.676Z,8.33
2023-01-09T02:42:27.023Z,8.14
2023-01-09T02:52:50.192Z,8.05
2023-01-09T03:03:24.547Z,8.03
2023-01-09T03:13:32.272Z,7.98
2023-01-09T03:23:46.909Z,7.85
2023-01-09T03:33:48.258Z,7.76
2023-01-09T03:43:49.653Z,7.61
2023-01-09T03:53:50.977Z,7.46
2023-01-09T04:03:52.523Z,7.27
2023-01-09T04:13:53.896Z,7.13
2023-01-09T04:23:55.379Z,6.97
2023-01-09T04:33:56.874Z,6.86
2023-01-09T04:43:58.251Z,6.74
2023-01-09T04:53:59.631Z,6.63
2023-01-09T05:04:01.279Z,6.54
2023-01-09T05:14:02.834Z,6.55
2023-01-09T05:24:04.484Z,6.54
2023-01-09T05:34:05.974Z,6.66
2023-01-09T05:44:07.499Z,6.75
2023-01-09T05:54:09.109Z,6.81
2023-01-09T06:04:10.552Z,6.87
2023-01-09T06:14:11.949Z,6.90
2023-01-09T06:24:13.427Z,6.86
2023-01-09T06:34:14.941Z,6.91
2023-01-09T06:44:16.405Z,6.99
2023-01-09T06:54:18.872Z,6.97
2023-01-09T07:04:21.983Z,7.02
2023-01-09T07:14:23.538Z,7.01
2023-01-09T07:24:25.034Z,7.09
2023-01-09T07:34:26.488Z,7.11
2023-01-09T07:44:28.006Z,7.05
2023-01-09T07:54:29.340Z,7.09
2023-01-09T08:04:31.138Z,7.09
2023-01-09T08:14:32.737Z,7.11
2023-01-09T08:24:34.349Z,7.15
2023-01-09T08:34:35.941Z,7.18
2023-01-09T08:44:56.062Z,7.22
2023-01-09T08:54:57.583Z,7.27
2023-01-09T09:04:59.405Z,7.28
2023-01-09T09:15:12.834Z,7.36
2023-01-09T09:25:15.474Z,7.42
2023-01-09T09:35:18.095Z,7.53
2023-01-09T09:45:50.859Z,7.62
2023-01-09T09:55:52.969Z,7.73
2023-01-09T10:05:55.056Z,7.80
2023-01-09T10:16:25.165Z,7.86
2023-01-09T10:26:38.215Z,7.91
2023-01-09T10:37:17.281Z,7.95
2023-01-09T10:47:25.838Z,8.02
2023-01-09T10:57:43.846Z,8.05
2023-01-09T11:07:49.440Z,8.11
2023-01-09T11:17:52.015Z,8.14
2023-01-09T11:28:05.103Z,8.20
2023-01-09T11:38:16.899Z,8.25
2023-01-09T11:48:31.953Z,8.29
2023-01-09T11:58:35.264Z,8.34
2023-01-09T12:08:49.100Z,8.33
2023-01-09T12:18:53.214Z,8.36
2023-01-09T12:29:33.947Z,8.32
2023-01-09T12:39:50.340Z,8.30
2023-01-09T12:50:09.320Z,8.32
2023-01-09T13:00:35.024Z,8.27
2023-01-09T13:10:41.998Z,8.25
2023-01-09T13:20:52.884Z,8.25
2023-01-09T13:31:00.593Z,8.25
2023-01-09T13:41:31.890Z,8.23
2023-01-09T13:51:57.816Z,8.27
2023-01-09T14:01:59.386Z,8.28
2023-01-09T14:12:07.860Z,8.26
2023-01-09T14:22:26.162Z,8.28
2023-01-09T14:32:29.764Z,8.31
2023-01-09T14:42:34.362Z,8.30
2023-01-09T14:52:48.261Z,8.23
2023-01-09T15:02:53.149Z,8.19
2023-01-09T15:12:57.473Z,8.17
2023-01-09T15:23:04.067Z,8.17
2023-01-09T15:33:11.562Z,8.16
2023-01-09T15:43:14.706Z,8.12
2023-01-09T15:53:19.963Z,8.14
2023-01-09T16:03:23.423Z,8.12
2023-01-09T16:13:27.769Z,8.10
2023-01-09T16:23:30.585Z,8.10
2023-01-09T16:33:32.436Z,8.08
2023-01-09T16:43:33.924Z,8.08
2023-01-09T16:53:35.503Z,8.00
2023-01-09T17:03:36.918Z,7.97
2023-01-09T17:13:38.369Z,7.91
2023-01-09T17:23:39.915Z,7.81
2023-01-09T17:33:41.786Z,7.77
2023-01-09T17:43:45.050Z,7.71
2023-01-09T17:53:48.247Z,7.60
2023-01-09T18:03:50.634Z,7.55
2023-01-09T18:13:54.110Z,7.56
2023-01-09T18:23:59.917Z,7.48
2023-01-09T18:34:05.449Z,7.45
2023-01-09T18:44:06.927Z,7.41
2023-01-09T18:54:08.407Z,7.43
2023-01-09T19:04:10.008Z,7.42
2023-01-09T19:14:11.920Z,7.42
2023-01-09T19:24:13.436Z,7.35
2023-01-09T19:34:16.085Z,7.34
2023-01-09T19:44:18.897Z,7.33
2023-01-09T19:54:20.341Z,7.34
2023-01-09T20:04:21.791Z,7.31
2023-01-09T20:14:23.342Z,7.26
2023-01-09T20:24:24.904Z,7.20
2023-01-09T20:34:26.848Z,7.17
2023-01-09T20:44:28.358Z,7.11
2023-01-09T20:54:29.833Z,7.07
2023-01-09T21:04:31.512Z,7.04
2023-01-09T21:14:33.060Z,7.04
2023-01-09T21:24:34.563Z,7.02
2023-01-09T21:34:36.241Z,7.01
2023-01-09T21:44:56.607Z,6.99
2023-01-09T21:54:58.243Z,7.00
2023-01-09T22:05:00.359Z,6.93
2023-01-09T22:15:01.877Z,6.84
2023-01-09T22:25:04.150Z,6.75
2023-01-09T22:35:06.385Z,6.66
2023-01-09T22:45:08.205Z,6.60
2023-01-09T22:55:10.033Z,6.51
2023-01-09T23:05:11.712Z,6.44
2023-01-09T23:15:13.294Z,6.37
2023-01-09T23:25:15.684Z,6.25
2023-01-09T23:35:17.247Z,6.22
2023-01-09T23:45:19.030Z,6.13
2023-01-09T23:55:20.427Z,6.09
